Live aus Altenrhein
LIVE
LSZR 241120Z 28010KT 8000 NSC 10/07 Q1022 NOSIG RMK I

People´s Info Center:

Öffnungszeiten Mo-Fr, 8-18 Uhr

 

info@peoples.ch

 
Aus Österreich:

T: +43 (0)5572 203 610

 

Aus CH / LI / DE:

T: +41 (0)71 858 51 60

 

Webcam Flughafen St.Gallen-Altenrhein

Live-Bilder und Zeitraffer LSZR / ACH.

 

Live aus Altenrhein
LIVE
LSZR 241120Z 28010KT 8000 NSC 10/07 Q1022 NOSIG RMK I
Zeitraffer heute
2017-03-24 00:14:59
LSZR 232250Z AUTO 08005KT 030V120 CAVOK 11/06 Q1015
Zeitraffer gestern
2017-03-23 00:14:52
LSZR 222250Z AUTO VRB02KT 7000 -RA OVC014 07/06 Q1013
Zeitraffer vor 3 Tagen
2017-03-21 00:14:51
LSZR 202250Z AUTO 27007KT 230V300 9999 OVC026 10/07 Q1012